createdAt,value
2017-11-21T00:00:57.006Z,5.37
2017-11-21T00:03:24.514Z,4.50
2017-11-21T00:05:52.341Z,5.63
2017-11-21T00:08:19.881Z,5.50
2017-11-21T00:10:47.387Z,5.73
2017-11-21T00:13:14.946Z,4.97
2017-11-21T00:15:42.569Z,5.53
2017-11-21T00:18:10.379Z,4.97
2017-11-21T00:20:37.968Z,4.67
2017-11-21T00:23:05.619Z,4.83
2017-11-21T00:25:33.151Z,4.27
2017-11-21T00:28:00.686Z,5.30
2017-11-21T00:30:28.377Z,4.83
2017-11-21T00:32:55.953Z,4.57
2017-11-21T00:35:23.439Z,6.00
2017-11-21T00:37:51.001Z,4.60
2017-11-21T00:51:53.541Z,4.67
2017-11-21T00:54:21.034Z,5.03
2017-11-21T00:56:48.566Z,5.53
2017-11-21T00:59:16.099Z,5.00
2017-11-21T01:01:43.638Z,4.70
2017-11-21T01:04:11.136Z,4.73
2017-11-21T01:06:38.699Z,4.50
2017-11-21T01:09:06.333Z,4.53
2017-11-21T01:11:33.878Z,4.60
2017-11-21T01:14:01.397Z,4.60
2017-11-21T01:16:28.945Z,4.80
2017-11-21T01:18:56.369Z,4.40
2017-11-21T01:21:23.875Z,5.07
2017-11-21T01:23:51.362Z,5.23
2017-11-21T01:26:18.833Z,4.83
2017-11-21T01:28:46.334Z,4.70
2017-11-21T01:31:18.846Z,5.47
2017-11-21T01:33:46.262Z,5.30
2017-11-21T01:36:13.864Z,4.67
2017-11-21T01:38:42.149Z,4.77
2017-11-21T01:41:09.701Z,4.87
2017-11-21T01:43:37.206Z,5.80
2017-11-21T01:46:04.723Z,4.57
2017-11-21T01:48:32.178Z,5.20
2017-11-21T01:50:59.634Z,5.30
2017-11-21T01:53:27.132Z,5.60
2017-11-21T01:55:54.626Z,5.27
2017-11-21T01:58:22.704Z,4.77
2017-11-21T02:00:50.153Z,4.73
2017-11-21T02:03:17.952Z,5.03
2017-11-21T02:05:46.538Z,5.17
2017-11-21T02:08:14.798Z,5.30
2017-11-21T02:10:42.255Z,4.77
2017-11-21T02:13:09.876Z,5.07
2017-11-21T02:15:37.303Z,5.13
2017-11-21T02:18:04.821Z,5.50
2017-11-21T02:20:32.272Z,6.13
2017-11-21T02:22:59.879Z,5.50
2017-11-21T02:25:27.412Z,5.33
2017-11-21T02:27:54.980Z,5.10
2017-11-21T02:30:22.428Z,5.10
2017-11-21T02:32:49.925Z,5.30
2017-11-21T02:35:17.420Z,4.83
2017-11-21T02:37:44.921Z,5.37
2017-11-21T02:40:36.097Z,4.93
2017-11-21T02:43:04.849Z,5.20
2017-11-21T02:45:32.358Z,4.90
2017-11-21T02:47:59.868Z,5.03
2017-11-21T02:50:27.350Z,4.47
2017-11-21T02:52:54.876Z,4.37
2017-11-21T02:55:22.638Z,4.97
2017-11-21T02:57:50.319Z,4.80
2017-11-21T03:00:22.833Z,4.83
2017-11-21T03:02:50.286Z,4.53
2017-11-21T03:05:17.770Z,4.60
2017-11-21T03:07:45.291Z,4.13
2017-11-21T03:10:17.744Z,5.00
2017-11-21T03:12:45.232Z,6.50
2017-11-21T03:15:12.702Z,5.10
2017-11-21T03:17:40.562Z,4.27
2017-11-21T03:20:08.039Z,4.73
2017-11-21T03:22:47.373Z,4.30
2017-11-21T03:25:26.886Z,4.50
2017-11-21T03:28:04.349Z,4.70
2017-11-21T03:30:31.816Z,4.23
2017-11-21T03:32:59.300Z,4.93
2017-11-21T03:35:26.889Z,4.40
2017-11-21T03:37:54.392Z,4.60
2017-11-21T03:40:21.871Z,4.93
2017-11-21T03:42:49.399Z,5.03
2017-11-21T03:45:16.854Z,4.93
2017-11-21T03:47:44.365Z,5.33
2017-11-21T03:50:11.869Z,4.90
2017-11-21T03:52:39.589Z,4.97
2017-11-21T03:55:07.134Z,4.73
2017-11-21T03:57:35.577Z,4.60
2017-11-21T04:00:03.173Z,5.33
2017-11-21T04:02:31.472Z,5.50
2017-11-21T04:04:58.959Z,5.03
2017-11-21T04:07:26.863Z,4.53
2017-11-21T04:09:54.327Z,4.93
2017-11-21T04:12:22.798Z,4.90
2017-11-21T04:14:50.565Z,4.80
2017-11-21T04:17:18.202Z,4.60
2017-11-21T04:19:45.649Z,4.60
2017-11-21T04:22:13.321Z,4.50
2017-11-21T04:24:41.869Z,5.67
2017-11-21T04:27:09.469Z,4.17
2017-11-21T04:29:37.041Z,4.70
2017-11-21T04:32:04.568Z,4.97
2017-11-21T04:34:32.126Z,5.10
2017-11-21T04:36:59.615Z,4.70
2017-11-21T04:39:27.305Z,4.93
2017-11-21T04:42:04.400Z,5.37
2017-11-21T04:44:31.853Z,5.07
2017-11-21T04:46:59.402Z,5.10
2017-11-21T04:49:26.938Z,4.47
2017-11-21T04:52:18.356Z,5.30
2017-11-21T04:54:46.326Z,4.93
2017-11-21T04:57:13.856Z,5.10
2017-11-21T04:59:42.494Z,5.17
2017-11-21T05:02:10.951Z,4.87
2017-11-21T05:04:38.740Z,5.60
2017-11-21T05:07:06.243Z,4.93
2017-11-21T05:09:34.187Z,5.30
2017-11-21T05:12:01.650Z,4.87
2017-11-21T05:14:29.127Z,5.37
2017-11-21T05:16:56.567Z,5.53
2017-11-21T05:19:24.346Z,5.10
2017-11-21T05:21:51.838Z,5.40
2017-11-21T05:24:19.388Z,5.40
2017-11-21T05:26:46.901Z,5.53
2017-11-21T05:29:14.335Z,5.70
2017-11-21T05:31:41.988Z,5.80
2017-11-21T05:34:09.502Z,5.43
2017-11-21T05:36:37.243Z,5.87
2017-11-21T05:39:05.066Z,6.17
2017-11-21T05:41:33.617Z,5.23
2017-11-21T05:44:01.103Z,5.80
2017-11-21T05:46:28.833Z,7.73
2017-11-21T05:48:57.252Z,5.87
2017-11-21T05:51:24.969Z,5.73
2017-11-21T05:53:52.417Z,6.40
2017-11-21T05:56:19.894Z,6.27
2017-11-21T05:58:47.400Z,6.60
2017-11-21T06:01:14.933Z,6.03
2017-11-21T06:03:42.442Z,6.37
2017-11-21T06:06:09.899Z,6.90
2017-11-21T06:08:37.338Z,5.80
2017-11-21T06:11:04.994Z,6.40
2017-11-21T06:13:32.469Z,6.33
2017-11-21T06:15:59.991Z,6.73
2017-11-21T06:18:27.487Z,6.77
2017-11-21T06:21:00.122Z,7.63
2017-11-21T06:23:27.567Z,7.57
2017-11-21T06:25:55.007Z,6.87
2017-11-21T06:28:22.479Z,8.90
2017-11-21T06:30:50.061Z,8.40
2017-11-21T06:33:17.655Z,7.93
2017-11-21T06:35:45.211Z,9.30
2017-11-21T06:38:12.769Z,8.73
2017-11-21T06:40:40.211Z,9.30
2017-11-21T06:43:07.752Z,9.63
2017-11-21T06:45:35.296Z,8.93
2017-11-21T06:48:02.755Z,9.10
2017-11-21T06:50:30.316Z,8.80
2017-11-21T06:52:57.938Z,10.07
2017-11-21T06:55:25.381Z,9.03
2017-11-21T06:57:52.850Z,9.43
2017-11-21T07:00:20.291Z,10.97
2017-11-21T07:02:47.829Z,8.43
2017-11-21T07:05:15.262Z,8.77
2017-11-21T07:07:42.786Z,9.60
2017-11-21T07:10:10.697Z,9.33
2017-11-21T07:12:38.153Z,9.57
2017-11-21T07:15:05.711Z,8.23
2017-11-21T07:17:33.257Z,8.37
2017-11-21T07:20:00.835Z,8.80
2017-11-21T07:22:28.588Z,7.43
2017-11-21T07:24:56.059Z,9.73
2017-11-21T07:27:23.664Z,8.40
2017-11-21T07:29:51.153Z,8.40
2017-11-21T07:32:18.638Z,8.43
2017-11-21T07:34:46.272Z,7.90
2017-11-21T07:37:13.883Z,8.57
2017-11-21T07:39:41.438Z,8.90
2017-11-21T07:42:08.956Z,8.37
2017-11-21T07:44:36.532Z,8.03
2017-11-21T07:47:04.072Z,8.60
2017-11-21T07:49:31.668Z,7.97
2017-11-21T07:51:59.217Z,7.67
2017-11-21T07:54:26.803Z,8.87
2017-11-21T07:56:54.550Z,7.07
2017-11-21T07:59:22.101Z,7.70
2017-11-21T08:01:49.732Z,6.73
2017-11-21T08:04:17.188Z,7.50
2017-11-21T08:06:44.664Z,8.27
2017-11-21T08:09:12.225Z,7.73
2017-11-21T08:11:39.698Z,7.50
2017-11-21T08:14:07.199Z,8.77
2017-11-21T08:16:34.741Z,7.33
2017-11-21T08:19:02.206Z,6.60
2017-11-21T08:21:29.899Z,7.37
2017-11-21T08:23:57.567Z,7.07
2017-11-21T08:26:25.201Z,7.00
2017-11-21T08:28:53.087Z,9.03
2017-11-21T08:31:20.625Z,6.70
2017-11-21T08:33:48.105Z,6.57
2017-11-21T08:36:15.560Z,6.27
2017-11-21T08:38:43.119Z,6.07
2017-11-21T08:41:10.733Z,6.27
2017-11-21T08:43:38.725Z,6.07
2017-11-21T08:46:06.143Z,5.73
2017-11-21T08:48:33.784Z,6.13
2017-11-21T08:53:53.878Z,6.13
2017-11-21T08:56:21.430Z,6.03
2017-11-21T08:58:48.989Z,6.37
2017-11-21T09:01:16.565Z,6.10
2017-11-21T09:03:44.137Z,6.87
2017-11-21T09:06:11.712Z,6.77
2017-11-21T09:08:39.244Z,6.07
2017-11-21T09:11:30.566Z,5.60
2017-11-21T09:13:58.132Z,5.77
2017-11-21T09:16:25.734Z,6.10
2017-11-21T09:18:53.259Z,6.50
2017-11-21T09:21:20.782Z,5.67
2017-11-21T09:23:48.254Z,6.00
2017-11-21T09:26:15.807Z,5.37
2017-11-21T09:28:43.357Z,5.53
2017-11-21T09:31:10.882Z,4.90
2017-11-21T09:33:38.437Z,5.47
2017-11-21T09:36:06.181Z,4.50
2017-11-21T09:38:33.647Z,4.40
2017-11-21T09:41:01.171Z,4.60
2017-11-21T09:43:28.763Z,4.87
2017-11-21T09:45:56.323Z,4.40
2017-11-21T09:48:24.866Z,4.60
2017-11-21T09:50:52.362Z,4.17
2017-11-21T09:53:19.816Z,4.27
2017-11-21T09:55:47.335Z,4.50
2017-11-21T09:58:14.904Z,4.10
2017-11-21T10:00:42.493Z,4.10
2017-11-21T10:03:10.060Z,6.10
2017-11-21T10:05:37.681Z,5.50
2017-11-21T10:08:05.234Z,5.23
2017-11-21T10:10:32.717Z,4.10
2017-11-21T10:13:00.284Z,4.00
2017-11-21T10:15:27.895Z,4.10
2017-11-21T10:17:55.629Z,4.17
2017-11-21T10:20:28.176Z,4.43
2017-11-21T10:22:55.771Z,5.87
2017-11-21T10:25:23.281Z,4.33
2017-11-21T10:27:50.742Z,3.87
2017-11-21T10:30:18.241Z,3.70
2017-11-21T10:32:45.674Z,4.63
2017-11-21T10:35:13.205Z,4.57
2017-11-21T10:37:40.690Z,6.63
2017-11-21T10:40:08.168Z,5.30
2017-11-21T10:42:37.148Z,5.53
2017-11-21T10:45:04.665Z,4.10
2017-11-21T10:47:32.178Z,4.13
2017-11-21T10:50:00.033Z,3.83
2017-11-21T10:52:27.480Z,3.87
2017-11-21T10:54:55.008Z,3.70
2017-11-21T10:57:22.492Z,4.27
2017-11-21T10:59:49.998Z,4.30
2017-11-21T11:02:17.509Z,3.70
2017-11-21T11:04:45.050Z,3.80
2017-11-21T11:07:12.606Z,4.13
2017-11-21T11:09:40.142Z,5.43
2017-11-21T11:12:07.626Z,3.90
2017-11-21T11:14:35.094Z,5.23
2017-11-21T11:17:02.645Z,3.43
2017-11-21T11:19:30.297Z,3.37
2017-11-21T11:21:57.997Z,3.73
2017-11-21T11:24:25.493Z,3.80
2017-11-21T11:26:53.015Z,3.40
2017-11-21T11:29:20.504Z,3.90
2017-11-21T11:31:48.147Z,4.03
2017-11-21T11:34:15.618Z,3.50
2017-11-21T11:36:43.179Z,3.50
2017-11-21T11:39:10.800Z,3.50
2017-11-21T11:41:38.332Z,3.07
2017-11-21T11:44:05.823Z,3.13
2017-11-21T11:46:33.306Z,3.23
2017-11-21T11:49:00.763Z,3.00
2017-11-21T11:51:37.889Z,4.57
2017-11-21T11:54:06.308Z,3.10
2017-11-21T11:56:33.914Z,3.87
2017-11-21T11:59:01.441Z,3.67
2017-11-21T12:01:29.021Z,5.03
2017-11-21T12:03:56.565Z,3.57
2017-11-21T12:06:24.198Z,4.80
2017-11-21T12:08:51.678Z,4.17
2017-11-21T12:11:19.669Z,4.73
2017-11-21T12:13:47.263Z,5.60
2017-11-21T12:16:14.895Z,4.47
2017-11-21T12:18:42.340Z,3.80
2017-11-21T12:21:09.930Z,4.23
2017-11-21T12:23:38.697Z,3.13
2017-11-21T12:26:06.492Z,3.17
2017-11-21T12:28:34.057Z,2.80
2017-11-21T12:31:06.589Z,2.60
2017-11-21T12:33:34.343Z,2.87
2017-11-21T12:36:02.673Z,2.60
2017-11-21T12:38:30.194Z,3.73
2017-11-21T12:40:58.065Z,2.70
2017-11-21T12:43:29.668Z,2.97
2017-11-21T12:45:57.405Z,3.00
2017-11-21T12:48:27.134Z,3.13
2017-11-21T12:50:54.692Z,2.37
2017-11-21T12:53:22.422Z,3.07
2017-11-21T12:55:50.039Z,2.83
2017-11-21T12:58:17.519Z,2.73
2017-11-21T13:00:45.019Z,4.67
2017-11-21T13:03:12.773Z,2.77
2017-11-21T13:05:40.373Z,2.93
2017-11-21T13:08:07.948Z,3.63
2017-11-21T13:10:35.542Z,3.00
2017-11-21T13:13:03.077Z,3.43
2017-11-21T13:15:30.611Z,3.53
2017-11-21T13:17:58.114Z,3.33
2017-11-21T13:20:25.632Z,3.50
2017-11-21T13:22:53.108Z,4.73
2017-11-21T13:25:20.687Z,3.57
2017-11-21T13:27:48.235Z,4.20
2017-11-21T13:30:15.785Z,3.37
2017-11-21T13:32:43.366Z,4.10
2017-11-21T13:35:10.900Z,3.57
2017-11-21T13:37:38.439Z,17.10
2017-11-21T13:40:10.987Z,7.33
2017-11-21T13:42:38.493Z,3.40
2017-11-21T13:45:06.209Z,8.97
2017-11-21T13:47:33.902Z,3.27
2017-11-21T13:50:01.470Z,3.60
2017-11-21T13:52:28.995Z,3.53
2017-11-21T13:54:56.519Z,3.87
2017-11-21T13:57:24.119Z,5.60
2017-11-21T13:59:52.231Z,3.23
2017-11-21T14:02:19.970Z,4.50
2017-11-21T14:04:47.557Z,3.80
2017-11-21T14:07:15.196Z,4.20
2017-11-21T14:09:42.769Z,8.20
2017-11-21T14:12:34.403Z,3.40
2017-11-21T14:15:01.925Z,3.83
2017-11-21T14:17:29.441Z,3.90
2017-11-21T14:19:56.970Z,3.97
2017-11-21T14:22:24.713Z,3.60
2017-11-21T14:24:52.169Z,3.50
2017-11-21T14:27:19.662Z,5.83
2017-11-21T14:29:47.111Z,4.23
2017-11-21T14:32:17.363Z,3.93
2017-11-21T14:34:45.001Z,3.87
2017-11-21T14:37:12.581Z,4.10
2017-11-21T14:39:40.423Z,4.20
2017-11-21T14:42:17.599Z,3.73
2017-11-21T14:44:45.142Z,4.43
2017-11-21T14:47:12.638Z,4.27
2017-11-21T14:49:40.234Z,4.63
2017-11-21T14:52:07.831Z,4.30
2017-11-21T14:54:35.393Z,5.53
2017-11-21T14:57:02.849Z,5.97
2017-11-21T14:59:30.815Z,5.07
2017-11-21T15:01:59.048Z,4.87
2017-11-21T15:04:26.622Z,4.97
2017-11-21T15:06:54.111Z,4.07
2017-11-21T15:09:21.576Z,3.70
2017-11-21T15:11:49.046Z,4.17
2017-11-21T15:14:16.641Z,4.70
2017-11-21T15:16:44.209Z,7.00
2017-11-21T15:19:11.730Z,4.47
2017-11-21T15:21:39.285Z,4.90
2017-11-21T15:24:06.825Z,4.60
2017-11-21T15:26:34.455Z,4.90
2017-11-21T15:29:02.092Z,5.57
2017-11-21T15:31:29.632Z,4.67
2017-11-21T15:33:57.148Z,3.93
2017-11-21T15:36:24.715Z,3.97
2017-11-21T15:38:52.270Z,3.70
2017-11-21T15:41:19.753Z,3.70
2017-11-21T15:43:47.420Z,4.00
2017-11-21T15:46:15.314Z,3.37
2017-11-21T15:48:43.471Z,3.30
2017-11-21T15:51:11.035Z,4.20
2017-11-21T15:53:38.709Z,3.87
2017-11-21T15:56:06.148Z,5.43
2017-11-21T15:58:33.611Z,5.73
2017-11-21T16:01:01.107Z,5.00
2017-11-21T16:03:29.635Z,6.53
2017-11-21T16:05:58.512Z,4.93
2017-11-21T16:08:27.123Z,3.87
2017-11-21T16:10:54.873Z,3.87
2017-11-21T16:13:22.372Z,4.47
2017-11-21T16:15:49.990Z,5.10
2017-11-21T16:18:17.460Z,4.17
2017-11-21T16:20:44.952Z,4.10
2017-11-21T16:23:12.456Z,3.43
2017-11-21T16:25:40.040Z,3.87
2017-11-21T16:28:07.529Z,3.90
2017-11-21T16:30:35.218Z,3.70
2017-11-21T16:33:02.699Z,4.37
2017-11-21T16:35:30.314Z,4.03
2017-11-21T16:37:57.896Z,4.80
2017-11-21T16:40:25.410Z,4.17
2017-11-21T16:42:52.924Z,8.40
2017-11-21T16:45:20.523Z,4.90
2017-11-21T16:47:48.033Z,5.47
2017-11-21T16:50:15.498Z,4.90
2017-11-21T16:52:42.977Z,5.17
2017-11-21T16:55:10.598Z,5.13
2017-11-21T16:57:38.101Z,6.63
2017-11-21T17:00:06.154Z,4.73
2017-11-21T17:02:33.648Z,5.23
2017-11-21T17:05:01.099Z,4.97
2017-11-21T17:07:28.622Z,4.87
2017-11-21T17:09:56.921Z,5.17
2017-11-21T17:12:24.604Z,5.53
2017-11-21T17:14:52.202Z,4.20
2017-11-21T17:17:19.770Z,6.57
2017-11-21T17:19:47.304Z,4.30
2017-11-21T17:22:14.778Z,4.17
2017-11-21T17:24:42.406Z,4.30
2017-11-21T17:27:10.040Z,5.53
2017-11-21T17:29:38.003Z,7.33
2017-11-21T17:32:32.046Z,4.10
2017-11-21T17:34:59.878Z,5.30
2017-11-21T17:37:27.393Z,6.43
2017-11-21T17:39:54.972Z,5.43
2017-11-21T17:42:22.853Z,5.13
2017-11-21T17:44:50.392Z,5.13
2017-11-21T17:47:18.056Z,5.00
2017-11-21T17:49:45.614Z,4.93
2017-11-21T17:52:13.180Z,6.00
2017-11-21T17:54:40.945Z,4.67
2017-11-21T17:57:08.405Z,4.20
2017-11-21T17:59:36.325Z,4.30
2017-11-21T18:02:04.851Z,10.93
2017-11-21T18:04:32.411Z,5.83
2017-11-21T18:06:59.995Z,5.03
2017-11-21T18:09:27.567Z,6.40
2017-11-21T18:11:55.101Z,5.20
2017-11-21T18:14:22.598Z,5.43
2017-11-21T18:16:50.187Z,4.47
2017-11-21T18:19:17.719Z,5.00
2017-11-21T18:21:59.616Z,5.70
2017-11-21T18:24:27.128Z,5.73
2017-11-21T18:26:54.663Z,6.03
2017-11-21T18:29:22.291Z,5.10
2017-11-21T18:31:49.776Z,7.23
2017-11-21T18:34:17.300Z,6.73
2017-11-21T18:36:44.868Z,5.73
2017-11-21T18:39:12.581Z,7.03
2017-11-21T18:41:40.195Z,7.07
2017-11-21T18:44:07.758Z,6.73
2017-11-21T18:46:35.623Z,6.73
2017-11-21T18:49:03.184Z,7.10
2017-11-21T18:51:30.806Z,6.10
2017-11-21T18:53:58.315Z,9.80
2017-11-21T18:56:25.922Z,6.00
2017-11-21T18:58:53.416Z,5.70
2017-11-21T19:01:26.165Z,6.07
2017-11-21T19:03:53.758Z,6.13
2017-11-21T19:06:22.146Z,6.23
2017-11-21T19:08:49.702Z,8.30
2017-11-21T19:11:26.955Z,7.40
2017-11-21T19:13:54.929Z,6.23
2017-11-21T19:16:23.649Z,5.90
2017-11-21T19:18:51.310Z,6.10
2017-11-21T19:21:19.186Z,6.70
2017-11-21T19:23:46.696Z,6.77
2017-11-21T19:26:14.239Z,6.50
2017-11-21T19:28:41.903Z,6.87
2017-11-21T19:31:09.475Z,7.77
2017-11-21T19:33:37.018Z,7.20
2017-11-21T19:36:04.690Z,8.33
2017-11-21T19:38:32.424Z,7.77
2017-11-21T19:41:00.010Z,7.83
2017-11-21T19:43:27.533Z,7.23
2017-11-21T19:45:55.087Z,6.57
2017-11-21T19:48:22.749Z,6.67
2017-11-21T19:50:50.320Z,7.50
2017-11-21T19:53:17.959Z,6.83
2017-11-21T19:55:45.662Z,6.20
2017-11-21T19:58:13.269Z,6.17
2017-11-21T20:00:40.866Z,6.47
2017-11-21T20:03:08.405Z,6.40
2017-11-21T20:05:35.992Z,6.40
2017-11-21T20:08:03.580Z,5.90
2017-11-21T20:10:31.218Z,5.70
2017-11-21T20:12:58.837Z,6.40
2017-11-21T20:15:26.367Z,6.00
2017-11-21T20:17:53.883Z,6.13
2017-11-21T20:20:21.402Z,5.67
2017-11-21T20:22:48.893Z,6.47
2017-11-21T20:25:16.481Z,5.93
2017-11-21T20:27:44.267Z,5.93
2017-11-21T20:30:12.065Z,6.20
2017-11-21T20:32:39.720Z,6.17
2017-11-21T20:35:07.284Z,5.83
2017-11-21T20:37:35.190Z,5.80
2017-11-21T20:40:02.807Z,5.70
2017-11-21T20:42:30.519Z,4.90
2017-11-21T20:44:58.035Z,5.80
2017-11-21T20:47:26.182Z,5.00
2017-11-21T20:49:53.810Z,6.50
2017-11-21T20:52:21.419Z,5.20
2017-11-21T20:54:50.043Z,5.63
2017-11-21T20:57:17.690Z,5.10
2017-11-21T20:59:45.332Z,5.63
2017-11-21T21:02:36.566Z,5.10
2017-11-21T21:05:04.224Z,4.80
2017-11-21T21:07:31.877Z,5.00
2017-11-21T21:10:00.755Z,5.40
2017-11-21T21:12:28.752Z,5.03
2017-11-21T21:14:56.310Z,5.40
2017-11-21T21:17:23.778Z,4.77
2017-11-21T21:19:51.495Z,4.80
2017-11-21T21:22:23.965Z,5.60
2017-11-21T21:24:51.572Z,5.03
2017-11-21T21:27:31.019Z,5.50
2017-11-21T21:29:58.686Z,5.20
2017-11-21T21:32:26.231Z,4.93
2017-11-21T21:34:54.566Z,5.77
2017-11-21T21:37:22.160Z,5.70
2017-11-21T21:39:49.725Z,5.47
2017-11-21T21:42:17.374Z,5.50
2017-11-21T21:44:45.008Z,6.20
2017-11-21T21:47:12.512Z,6.30
2017-11-21T21:49:40.398Z,8.03
2017-11-21T21:52:08.005Z,6.10
2017-11-21T21:54:35.638Z,6.60
2017-11-21T21:57:03.209Z,6.27
2017-11-21T21:59:30.836Z,6.97
2017-11-21T22:01:59.324Z,6.83
2017-11-21T22:04:26.929Z,6.43
2017-11-21T22:06:54.591Z,7.53
2017-11-21T22:09:22.040Z,6.80
2017-11-21T22:17:34.913Z,6.97
2017-11-21T22:20:02.360Z,6.77
2017-11-21T22:22:30.005Z,7.83
2017-11-21T22:24:57.739Z,7.67
2017-11-21T22:27:25.288Z,7.53
2017-11-21T22:29:53.866Z,7.67
2017-11-21T22:32:21.607Z,7.87
2017-11-21T22:34:49.342Z,8.33
2017-11-21T22:37:16.967Z,7.93
2017-11-21T22:39:44.561Z,7.83
2017-11-21T22:42:12.191Z,9.17
2017-11-21T22:44:39.985Z,8.57
2017-11-21T22:47:07.601Z,8.40
2017-11-21T22:49:35.230Z,8.93
2017-11-21T22:52:03.181Z,8.87
2017-11-21T22:54:30.768Z,8.37
2017-11-21T22:56:59.462Z,8.90
2017-11-21T22:59:27.415Z,8.40
2017-11-21T23:01:54.895Z,10.47
2017-11-21T23:04:22.501Z,9.70
2017-11-21T23:06:49.988Z,10.10
2017-11-21T23:09:17.542Z,11.03
2017-11-21T23:11:45.014Z,10.33
2017-11-21T23:14:12.539Z,9.87
2017-11-21T23:16:40.166Z,9.97
2017-11-21T23:19:07.733Z,10.17
2017-11-21T23:21:35.273Z,10.27
2017-11-21T23:24:02.808Z,9.13
2017-11-21T23:26:30.635Z,8.97
2017-11-21T23:28:58.136Z,9.53
2017-11-21T23:31:25.732Z,10.10
2017-11-21T23:33:53.304Z,9.27
2017-11-21T23:36:20.783Z,9.43
2017-11-21T23:38:48.276Z,9.87
2017-11-21T23:41:16.089Z,9.23
2017-11-21T23:43:43.648Z,8.63
2017-11-21T23:46:11.148Z,9.23
2017-11-21T23:48:38.727Z,9.53
2017-11-21T23:51:06.584Z,8.70
2017-11-21T23:53:34.201Z,8.57
2017-11-21T23:56:01.927Z,9.23
2017-11-21T23:58:30.185Z,9.57
